sensor_id;sensor_type;location;lat;lon;timestamp;pressure;altitude;pressure_sealevel;temperature
73761;BMP280;69240;43.530;-5.646;2023-06-05T00:01:56;101418.59;;;20.58
73761;BMP280;69240;43.530;-5.646;2023-06-05T00:04:22;101413.53;;;20.49
73761;BMP280;69240;43.530;-5.646;2023-06-05T00:06:49;101416.75;;;20.48
73761;BMP280;69240;43.530;-5.646;2023-06-05T00:09:16;101419.41;;;20.53
73761;BMP280;69240;43.530;-5.646;2023-06-05T00:11:41;101416.47;;;20.51
73761;BMP280;69240;43.530;-5.646;2023-06-05T00:14:07;101410.84;;;20.44
73761;BMP280;69240;43.530;-5.646;2023-06-05T00:16:34;101412.34;;;20.45
73761;BMP280;69240;43.530;-5.646;2023-06-05T00:19:00;101395.72;;;20.48
73761;BMP280;69240;43.530;-5.646;2023-06-05T00:21:26;101393.50;;;20.47
73761;BMP280;69240;43.530;-5.646;2023-06-05T00:23:52;101392.56;;;20.09
73761;BMP280;69240;43.530;-5.646;2023-06-05T00:26:17;101395.22;;;19.85
73761;BMP280;69240;43.530;-5.646;2023-06-05T00:28:43;101389.91;;;20.04
73761;BMP280;69240;43.530;-5.646;2023-06-05T00:31:08;101399.19;;;20.19
73761;BMP280;69240;43.530;-5.646;2023-06-05T00:33:34;101397.38;;;20.27
73761;BMP280;69240;43.530;-5.646;2023-06-05T00:35:59;101391.03;;;20.19
73761;BMP280;69240;43.530;-5.646;2023-06-05T00:38:25;101395.69;;;20.24
73761;BMP280;69240;43.530;-5.646;2023-06-05T00:40:51;101398.31;;;20.35
73761;BMP280;69240;43.530;-5.646;2023-06-05T00:43:17;101397.28;;;20.38
73761;BMP280;69240;43.530;-5.646;2023-06-05T00:45:42;101394.81;;;20.40
73761;BMP280;69240;43.530;-5.646;2023-06-05T00:48:08;101389.38;;;20.40
73761;BMP280;69240;43.530;-5.646;2023-06-05T00:50:34;101392.41;;;20.31
73761;BMP280;69240;43.530;-5.646;2023-06-05T00:56:23;101389.66;;;20.37
73761;BMP280;69240;43.530;-5.646;2023-06-05T01:02:14;101391.69;;;20.31
73761;BMP280;69240;43.530;-5.646;2023-06-05T01:08:13;101395.13;;;20.31
73761;BMP280;69240;43.530;-5.646;2023-06-05T01:21:14;101378.97;;;20.15
73761;BMP280;69240;43.530;-5.646;2023-06-05T01:34:07;101371.59;;;20.04
73761;BMP280;69240;43.530;-5.646;2023-06-05T01:40:01;101369.91;;;20.01
73761;BMP280;69240;43.530;-5.646;2023-06-05T01:45:53;101358.59;;;19.97
73761;BMP280;69240;43.530;-5.646;2023-06-05T01:48:22;101352.41;;;19.97
73761;BMP280;69240;43.530;-5.646;2023-06-05T01:50:49;101351.69;;;19.96
73761;BMP280;69240;43.530;-5.646;2023-06-05T01:56:40;101352.22;;;19.89
73761;BMP280;69240;43.530;-5.646;2023-06-05T01:59:05;101355.19;;;19.91
73761;BMP280;69240;43.530;-5.646;2023-06-05T02:01:33;101353.41;;;19.94
73761;BMP280;69240;43.530;-5.646;2023-06-05T02:04:00;101362.56;;;19.96
73761;BMP280;69240;43.530;-5.646;2023-06-05T02:13:13;101355.19;;;19.91
73761;BMP280;69240;43.530;-5.646;2023-06-05T02:19:07;101363.34;;;19.86
73761;BMP280;69240;43.530;-5.646;2023-06-05T02:24:55;101354.50;;;19.80
73761;BMP280;69240;43.530;-5.646;2023-06-05T02:30:43;101354.78;;;19.76
73761;BMP280;69240;43.530;-5.646;2023-06-05T02:36:32;101345.09;;;19.81
73761;BMP280;69240;43.530;-5.646;2023-06-05T02:42:28;101343.84;;;19.87
73761;BMP280;69240;43.530;-5.646;2023-06-05T02:48:21;101347.56;;;19.84
73761;BMP280;69240;43.530;-5.646;2023-06-05T02:54:10;101340.50;;;19.70
73761;BMP280;69240;43.530;-5.646;2023-06-05T03:00:00;101337.53;;;19.68
73761;BMP280;69240;43.530;-5.646;2023-06-05T03:05:53;101338.47;;;19.76
73761;BMP280;69240;43.530;-5.646;2023-06-05T03:11:40;101330.13;;;19.74
73761;BMP280;69240;43.530;-5.646;2023-06-05T03:14:17;101337.53;;;19.68
73761;BMP280;69240;43.530;-5.646;2023-06-05T03:20:41;101342.69;;;19.77
73761;BMP280;69240;43.530;-5.646;2023-06-05T03:26:31;101342.22;;;19.73
73761;BMP280;69240;43.530;-5.646;2023-06-05T03:32:21;101348.41;;;19.68
73761;BMP280;69240;43.530;-5.646;2023-06-05T03:38:11;101347.19;;;19.69
73761;BMP280;69240;43.530;-5.646;2023-06-05T03:47:21;101348.41;;;19.68
73761;BMP280;69240;43.530;-5.646;2023-06-05T03:50:23;101335.63;;;19.63
73761;BMP280;69240;43.530;-5.646;2023-06-05T03:52:55;101341.63;;;19.45
73761;BMP280;69240;43.530;-5.646;2023-06-05T03:58:50;101330.91;;;19.64
73761;BMP280;69240;43.530;-5.646;2023-06-05T04:05:14;101331.22;;;19.49
73761;BMP280;69240;43.530;-5.646;2023-06-05T04:07:53;101328.34;;;19.36
73761;BMP280;69240;43.530;-5.646;2023-06-05T04:13:46;101332.41;;;19.59
73761;BMP280;69240;43.530;-5.646;2023-06-05T04:16:11;101328.34;;;19.36
73761;BMP280;69240;43.530;-5.646;2023-06-05T04:22:00;101330.94;;;19.12
73761;BMP280;69240;43.530;-5.646;2023-06-05T04:27:49;101328.31;;;19.47
73761;BMP280;69240;43.530;-5.646;2023-06-05T04:33:44;101328.75;;;19.51
73761;BMP280;69240;43.530;-5.646;2023-06-05T04:40:07;101319.19;;;19.45
73761;BMP280;69240;43.530;-5.646;2023-06-05T04:46:01;101324.84;;;19.52
73761;BMP280;69240;43.530;-5.646;2023-06-05T04:48:28;101331.75;;;19.53
73761;BMP280;69240;43.530;-5.646;2023-06-05T04:50:54;101329.97;;;19.56
73761;BMP280;69240;43.530;-5.646;2023-06-05T04:57:01;101331.19;;;19.60
73761;BMP280;69240;43.530;-5.646;2023-06-05T04:59:27;101335.63;;;19.63
73761;BMP280;69240;43.530;-5.646;2023-06-05T05:05:14;101331.16;;;19.66
73761;BMP280;69240;43.530;-5.646;2023-06-05T05:07:41;101329.66;;;19.70
73761;BMP280;69240;43.530;-5.646;2023-06-05T05:10:08;101333.34;;;19.73
73761;BMP280;69240;43.530;-5.646;2023-06-05T05:12:35;101331.56;;;19.75
73761;BMP280;69240;43.530;-5.646;2023-06-05T05:15:02;101337.25;;;19.77
73761;BMP280;69240;43.530;-5.646;2023-06-05T05:17:29;101342.88;;;19.79
73761;BMP280;69240;43.530;-5.646;2023-06-05T05:19:55;101333.53;;;19.80
73761;BMP280;69240;43.530;-5.646;2023-06-05T05:22:21;101333.25;;;19.84
73761;BMP280;69240;43.530;-5.646;2023-06-05T05:24:46;101344.38;;;19.80
73761;BMP280;69240;43.530;-5.646;2023-06-05T05:27:12;101343.38;;;19.83
73761;BMP280;69240;43.530;-5.646;2023-06-05T05:29:37;101349.66;;;19.67
73761;BMP280;69240;43.530;-5.646;2023-06-05T05:32:03;101351.84;;;19.74
73761;BMP280;69240;43.530;-5.646;2023-06-05T05:34:29;101344.31;;;19.91
73761;BMP280;69240;43.530;-5.646;2023-06-05T05:36:54;101343.03;;;19.98
73761;BMP280;69240;43.530;-5.646;2023-06-05T05:39:20;101355.66;;;19.95
73761;BMP280;69240;43.530;-5.646;2023-06-05T05:41:46;101359.03;;;20.01
73761;BMP280;69240;43.530;-5.646;2023-06-05T05:44:11;101356.84;;;20.00
73761;BMP280;69240;43.530;-5.646;2023-06-05T05:46:37;101358.00;;;20.04
73761;BMP280;69240;43.530;-5.646;2023-06-05T05:52:24;101358.00;;;20.10
73761;BMP280;69240;43.530;-5.646;2023-06-05T05:54:54;101365.66;;;20.11
73761;BMP280;69240;43.530;-5.646;2023-06-05T06:01:05;101372.22;;;20.21
73761;BMP280;69240;43.530;-5.646;2023-06-05T06:03:48;101366.56;;;20.19
73761;BMP280;69240;43.530;-5.646;2023-06-05T06:06:33;101369.50;;;20.21
73761;BMP280;69240;43.530;-5.646;2023-06-05T06:08:59;101369.28;;;20.19
73761;BMP280;69240;43.530;-5.646;2023-06-05T06:11:27;101371.25;;;20.24
73761;BMP280;69240;43.530;-5.646;2023-06-05T06:13:52;101373.19;;;20.29
73761;BMP280;69240;43.530;-5.646;2023-06-05T06:16:18;101368.91;;;20.34
73761;BMP280;69240;43.530;-5.646;2023-06-05T06:18:43;101377.75;;;20.40
73761;BMP280;69240;43.530;-5.646;2023-06-05T06:21:09;101376.47;;;20.46
73761;BMP280;69240;43.530;-5.646;2023-06-05T06:23:34;101374.19;;;20.50
73761;BMP280;69240;43.530;-5.646;2023-06-05T06:26:00;101374.44;;;20.52
73761;BMP280;69240;43.530;-5.646;2023-06-05T06:28:26;101383.53;;;20.55
73761;BMP280;69240;43.530;-5.646;2023-06-05T06:30:51;101380.03;;;20.60
73761;BMP280;69240;43.530;-5.646;2023-06-05T06:33:17;101390.63;;;20.63
73761;BMP280;69240;43.530;-5.646;2023-06-05T06:35:42;101395.59;;;20.59
73761;BMP280;69240;43.530;-5.646;2023-06-05T06:38:08;101389.59;;;20.66
73761;BMP280;69240;43.530;-5.646;2023-06-05T06:40:34;101388.88;;;20.66
73761;BMP280;69240;43.530;-5.646;2023-06-05T06:43:00;101394.50;;;20.73
73761;BMP280;69240;43.530;-5.646;2023-06-05T06:45:26;101390.25;;;20.78
73761;BMP280;69240;43.530;-5.646;2023-06-05T06:47:51;101391.69;;;20.79
73761;BMP280;69240;43.530;-5.646;2023-06-05T06:50:17;101395.84;;;20.85
73761;BMP280;69240;43.530;-5.646;2023-06-05T06:53:02;101398.50;;;20.91
73761;BMP280;69240;43.530;-5.646;2023-06-05T06:55:28;101398.69;;;20.98
73761;BMP280;69240;43.530;-5.646;2023-06-05T06:57:54;101403.91;;;20.96
73761;BMP280;69240;43.530;-5.646;2023-06-05T07:00:20;101396.91;;;21.01
73761;BMP280;69240;43.530;-5.646;2023-06-05T07:02:46;101391.75;;;20.97
73761;BMP280;69240;43.530;-5.646;2023-06-05T07:05:12;101400.25;;;21.12
73761;BMP280;69240;43.530;-5.646;2023-06-05T07:07:38;101399.47;;;21.17
73761;BMP280;69240;43.530;-5.646;2023-06-05T07:10:04;101406.13;;;21.16
73761;BMP280;69240;43.530;-5.646;2023-06-05T07:15:51;101405.34;;;21.21
73761;BMP280;69240;43.530;-5.646;2023-06-05T07:18:17;101398.13;;;21.42
73761;BMP280;69240;43.530;-5.646;2023-06-05T07:20:43;101403.59;;;21.60
73761;BMP280;69240;43.530;-5.646;2023-06-05T07:23:09;101405.03;;;21.61
73761;BMP280;69240;43.530;-5.646;2023-06-05T07:25:34;101410.06;;;21.76
73761;BMP280;69240;43.530;-5.646;2023-06-05T07:28:00;101413.75;;;21.60
73761;BMP280;69240;43.530;-5.646;2023-06-05T07:30:26;101409.69;;;21.66
73761;BMP280;69240;43.530;-5.646;2023-06-05T07:32:53;101414.72;;;21.94
73761;BMP280;69240;43.530;-5.646;2023-06-05T07:35:20;101420.22;;;22.07
73761;BMP280;69240;43.530;-5.646;2023-06-05T07:37:46;101415.47;;;21.94
73761;BMP280;69240;43.530;-5.646;2023-06-05T07:40:11;101416.50;;;21.91
73761;BMP280;69240;43.530;-5.646;2023-06-05T07:42:37;101419.47;;;22.51
73761;BMP280;69240;43.530;-5.646;2023-06-05T07:45:03;101424.97;;;22.19
73761;BMP280;69240;43.530;-5.646;2023-06-05T07:47:29;101425.22;;;22.47
73761;BMP280;69240;43.530;-5.646;2023-06-05T07:50:01;101426.72;;;22.48
73761;BMP280;69240;43.530;-5.646;2023-06-05T07:52:30;101430.16;;;23.01
73761;BMP280;69240;43.530;-5.646;2023-06-05T07:54:55;101430.63;;;22.92
73761;BMP280;69240;43.530;-5.646;2023-06-05T07:57:21;101428.84;;;23.41
73761;BMP280;69240;43.530;-5.646;2023-06-05T07:59:49;101430.09;;;23.93
73761;BMP280;69240;43.530;-5.646;2023-06-05T08:02:17;101431.25;;;24.46
73761;BMP280;69240;43.530;-5.646;2023-06-05T08:04:42;101431.59;;;23.94
73761;BMP280;69240;43.530;-5.646;2023-06-05T08:07:08;101434.56;;;23.30
73761;BMP280;69240;43.530;-5.646;2023-06-05T08:09:34;101432.25;;;23.87
73761;BMP280;69240;43.530;-5.646;2023-06-05T08:12:03;101424.13;;;23.74
73761;BMP280;69240;43.530;-5.646;2023-06-05T08:14:28;101426.13;;;23.94
73761;BMP280;69240;43.530;-5.646;2023-06-05T08:16:54;101437.81;;;24.43
73761;BMP280;69240;43.530;-5.646;2023-06-05T08:19:21;101439.03;;;23.53
73761;BMP280;69240;43.530;-5.646;2023-06-05T08:21:46;101439.78;;;23.41
73761;BMP280;69240;43.530;-5.646;2023-06-05T08:24:12;101434.78;;;24.26
73761;BMP280;69240;43.530;-5.646;2023-06-05T08:26:37;101425.72;;;25.02
73761;BMP280;69240;43.530;-5.646;2023-06-05T08:29:03;101426.78;;;23.87
73761;BMP280;69240;43.530;-5.646;2023-06-05T08:31:28;101423.84;;;23.85
73761;BMP280;69240;43.530;-5.646;2023-06-05T08:33:54;101436.25;;;24.27
73761;BMP280;69240;43.530;-5.646;2023-06-05T08:36:20;101425.72;;;23.90
73761;BMP280;69240;43.530;-5.646;2023-06-05T08:38:46;101424.84;;;23.42
73761;BMP280;69240;43.530;-5.646;2023-06-05T08:41:13;101419.66;;;24.05
73761;BMP280;69240;43.530;-5.646;2023-06-05T08:43:41;101422.97;;;24.11
73761;BMP280;69240;43.530;-5.646;2023-06-05T08:46:11;101423.97;;;24.00
73761;BMP280;69240;43.530;-5.646;2023-06-05T08:48:47;101410.78;;;23.91
73761;BMP280;69240;43.530;-5.646;2023-06-05T08:51:15;101417.84;;;23.67
73761;BMP280;69240;43.530;-5.646;2023-06-05T08:53:44;101416.13;;;23.76
73761;BMP280;69240;43.530;-5.646;2023-06-05T08:56:12;101404.66;;;23.98
73761;BMP280;69240;43.530;-5.646;2023-06-05T08:58:39;101406.53;;;24.03
73761;BMP280;69240;43.530;-5.646;2023-06-05T09:01:05;101412.38;;;23.67
73761;BMP280;69240;43.530;-5.646;2023-06-05T09:03:33;101412.63;;;23.56
73761;BMP280;69240;43.530;-5.646;2023-06-05T09:05:58;101401.66;;;23.89
73761;BMP280;69240;43.530;-5.646;2023-06-05T09:08:28;101404.81;;;23.39
73761;BMP280;69240;43.530;-5.646;2023-06-05T09:13:47;101398.47;;;23.11
73761;BMP280;69240;43.530;-5.646;2023-06-05T09:16:13;101406.09;;;23.59
73761;BMP280;69240;43.530;-5.646;2023-06-05T09:18:52;101406.56;;;23.37
73761;BMP280;69240;43.530;-5.646;2023-06-05T09:21:18;101404.38;;;23.35
73761;BMP280;69240;43.530;-5.646;2023-06-05T09:23:44;101405.81;;;23.69
73761;BMP280;69240;43.530;-5.646;2023-06-05T09:26:10;101404.16;;;23.87
73761;BMP280;69240;43.530;-5.646;2023-06-05T09:28:52;101410.34;;;23.47
73761;BMP280;69240;43.530;-5.646;2023-06-05T09:31:19;101408.38;;;24.08
73761;BMP280;69240;43.530;-5.646;2023-06-05T09:33:54;101405.81;;;24.10
73761;BMP280;69240;43.530;-5.646;2023-06-05T09:36:20;101414.38;;;23.86
73761;BMP280;69240;43.530;-5.646;2023-06-05T09:38:46;101410.22;;;24.13
73761;BMP280;69240;43.530;-5.646;2023-06-05T09:41:13;101406.19;;;24.63
73761;BMP280;69240;43.530;-5.646;2023-06-05T09:43:40;101405.91;;;23.57
73761;BMP280;69240;43.530;-5.646;2023-06-05T09:46:15;101412.38;;;23.67
73761;BMP280;69240;43.530;-5.646;2023-06-05T09:48:42;101411.13;;;23.68
73761;BMP280;69240;43.530;-5.646;2023-06-05T09:51:16;101405.72;;;23.95
73761;BMP280;69240;43.530;-5.646;2023-06-05T09:53:52;101406.66;;;23.77
73761;BMP280;69240;43.530;-5.646;2023-06-05T09:56:22;101408.56;;;24.38
73761;BMP280;69240;43.530;-5.646;2023-06-05T09:58:51;101410.31;;;24.00
73761;BMP280;69240;43.530;-5.646;2023-06-05T10:01:27;101423.31;;;24.07
73761;BMP280;69240;43.530;-5.646;2023-06-05T10:04:01;101410.78;;;23.71
73761;BMP280;69240;43.530;-5.646;2023-06-05T10:06:29;101415.19;;;23.74
73761;BMP280;69240;43.530;-5.646;2023-06-05T10:08:55;101414.25;;;23.72
73761;BMP280;69240;43.530;-5.646;2023-06-05T10:11:23;101414.94;;;23.65
73761;BMP280;69240;43.530;-5.646;2023-06-05T10:13:49;101403.91;;;23.57
73761;BMP280;69240;43.530;-5.646;2023-06-05T10:16:19;101411.66;;;23.33
73761;BMP280;69240;43.530;-5.646;2023-06-05T10:18:49;101403.38;;;23.99
73761;BMP280;69240;43.530;-5.646;2023-06-05T10:21:15;101405.31;;;23.51
73761;BMP280;69240;43.530;-5.646;2023-06-05T10:24:14;101394.28;;;23.43
73761;BMP280;69240;43.530;-5.646;2023-06-05T10:32:21;101401.19;;;23.77
73761;BMP280;69240;43.530;-5.646;2023-06-05T10:38:12;101390.44;;;23.59
73761;BMP280;69240;43.530;-5.646;2023-06-05T10:40:41;101398.63;;;23.79
73761;BMP280;69240;43.530;-5.646;2023-06-05T10:43:45;101392.09;;;23.82
73761;BMP280;69240;43.530;-5.646;2023-06-05T10:51:45;101404.41;;;23.56
73761;BMP280;69240;43.530;-5.646;2023-06-05T10:54:12;101403.19;;;23.97
73761;BMP280;69240;43.530;-5.646;2023-06-05T10:56:56;101404.44;;;23.76
73761;BMP280;69240;43.530;-5.646;2023-06-05T10:59:27;101408.78;;;23.72
73761;BMP280;69240;43.530;-5.646;2023-06-05T11:07:30;101399.31;;;23.73
73761;BMP280;69240;43.530;-5.646;2023-06-05T11:15:09;101401.38;;;24.00
73761;BMP280;69240;43.530;-5.646;2023-06-05T11:17:36;101390.13;;;24.03
73761;BMP280;69240;43.530;-5.646;2023-06-05T11:20:03;101398.38;;;23.90
73761;BMP280;69240;43.530;-5.646;2023-06-05T11:28:03;101381.91;;;24.31
73761;BMP280;69240;43.530;-5.646;2023-06-05T11:30:39;101386.38;;;24.49
73761;BMP280;69240;43.530;-5.646;2023-06-05T11:33:09;101377.84;;;24.25
73761;BMP280;69240;43.530;-5.646;2023-06-05T11:35:38;101367.53;;;24.10
73761;BMP280;69240;43.530;-5.646;2023-06-05T11:38:10;101375.28;;;24.19
73761;BMP280;69240;43.530;-5.646;2023-06-05T11:40:37;101371.91;;;24.34
73761;BMP280;69240;43.530;-5.646;2023-06-05T11:43:07;101367.47;;;24.59
73761;BMP280;69240;43.530;-5.646;2023-06-05T11:45:33;101367.56;;;23.69
73761;BMP280;69240;43.530;-5.646;2023-06-05T11:48:08;101369.06;;;23.37
73761;BMP280;69240;43.530;-5.646;2023-06-05T11:50:35;101352.41;;;23.28
73761;BMP280;69240;43.530;-5.646;2023-06-05T11:53:08;101352.34;;;23.74
73761;BMP280;69240;43.530;-5.646;2023-06-05T11:55:34;101352.84;;;23.52
73761;BMP280;69240;43.530;-5.646;2023-06-05T11:58:29;101357.66;;;23.26
73761;BMP280;69240;43.530;-5.646;2023-06-05T12:01:15;101350.50;;;23.36
73761;BMP280;69240;43.530;-5.646;2023-06-05T12:03:47;101348.28;;;23.34
73761;BMP280;69240;43.530;-5.646;2023-06-05T12:06:14;101344.13;;;23.54
73761;BMP280;69240;43.530;-5.646;2023-06-05T12:08:40;101351.09;;;23.42
73761;BMP280;69240;43.530;-5.646;2023-06-05T12:11:39;101345.53;;;23.14
73761;BMP280;69240;43.530;-5.646;2023-06-05T12:14:05;101349.75;;;23.02
73761;BMP280;69240;43.530;-5.646;2023-06-05T12:16:38;101337.50;;;22.82
73761;BMP280;69240;43.530;-5.646;2023-06-05T12:19:16;101341.16;;;22.98
73761;BMP280;69240;43.530;-5.646;2023-06-05T12:21:46;101340.47;;;22.58
73761;BMP280;69240;43.530;-5.646;2023-06-05T12:24:13;101336.38;;;22.78
73761;BMP280;69240;43.530;-5.646;2023-06-05T12:26:52;101327.44;;;23.24
73761;BMP280;69240;43.530;-5.646;2023-06-05T12:29:25;101330.47;;;23.00
73761;BMP280;69240;43.530;-5.646;2023-06-05T12:31:53;101322.00;;;22.64
73761;BMP280;69240;43.530;-5.646;2023-06-05T12:34:41;101322.00;;;22.12
73761;BMP280;69240;43.530;-5.646;2023-06-05T12:37:07;101315.81;;;22.64
73761;BMP280;69240;43.530;-5.646;2023-06-05T12:39:33;101312.19;;;22.95
73761;BMP280;69240;43.530;-5.646;2023-06-05T12:41:59;101309.16;;;22.85
73761;BMP280;69240;43.530;-5.646;2023-06-05T12:44:25;101303.22;;;22.74
73761;BMP280;69240;43.530;-5.646;2023-06-05T12:46:50;101287.72;;;22.56
73761;BMP280;69240;43.530;-5.646;2023-06-05T12:49:16;101299.00;;;22.60
73761;BMP280;69240;43.530;-5.646;2023-06-05T12:51:42;101303.63;;;22.78
73761;BMP280;69240;43.530;-5.646;2023-06-05T12:54:08;101301.34;;;22.56
73761;BMP280;69240;43.530;-5.646;2023-06-05T12:56:33;101314.59;;;22.52
73761;BMP280;69240;43.530;-5.646;2023-06-05T12:59:00;101326.28;;;22.60
73761;BMP280;69240;43.530;-5.646;2023-06-05T13:01:26;101312.16;;;22.35
73761;BMP280;69240;43.530;-5.646;2023-06-05T13:03:54;101309.75;;;22.45
73761;BMP280;69240;43.530;-5.646;2023-06-05T13:06:19;101301.34;;;22.43
73761;BMP280;69240;43.530;-5.646;2023-06-05T13:08:46;101300.19;;;22.51
73761;BMP280;69240;43.530;-5.646;2023-06-05T13:11:12;101292.56;;;22.37
73761;BMP280;69240;43.530;-5.646;2023-06-05T13:13:38;101298.63;;;22.43
73761;BMP280;69240;43.530;-5.646;2023-06-05T13:16:04;101302.50;;;22.21
73761;BMP280;69240;43.530;-5.646;2023-06-05T13:18:34;101289.06;;;22.23
73761;BMP280;69240;43.530;-5.646;2023-06-05T13:21:02;101301.34;;;22.17
73761;BMP280;69240;43.530;-5.646;2023-06-05T13:23:28;101296.31;;;22.21
73761;BMP280;69240;43.530;-5.646;2023-06-05T13:25:53;101290.03;;;22.26
73761;BMP280;69240;43.530;-5.646;2023-06-05T13:28:20;101285.84;;;22.25
73761;BMP280;69240;43.530;-5.646;2023-06-05T13:30:46;101288.13;;;22.08
73761;BMP280;69240;43.530;-5.646;2023-06-05T13:33:12;101285.81;;;21.99
73761;BMP280;69240;43.530;-5.646;2023-06-05T13:35:39;101271.97;;;22.23
73761;BMP280;69240;43.530;-5.646;2023-06-05T13:38:04;101286.44;;;21.92
73761;BMP280;69240;43.530;-5.646;2023-06-05T13:40:30;101283.69;;;22.05
73761;BMP280;69240;43.530;-5.646;2023-06-05T13:42:58;101292.97;;;22.15
73761;BMP280;69240;43.530;-5.646;2023-06-05T13:45:24;101285.31;;;22.39
73761;BMP280;69240;43.530;-5.646;2023-06-05T13:47:49;101282.75;;;22.41
73761;BMP280;69240;43.530;-5.646;2023-06-05T13:50:15;101280.34;;;22.38
73761;BMP280;69240;43.530;-5.646;2023-06-05T13:52:40;101283.28;;;22.01
73761;BMP280;69240;43.530;-5.646;2023-06-05T13:55:06;101273.84;;;22.02
73761;BMP280;69240;43.530;-5.646;2023-06-05T13:57:32;101277.88;;;22.14
73761;BMP280;69240;43.530;-5.646;2023-06-05T13:59:57;101278.59;;;22.01
73761;BMP280;69240;43.530;-5.646;2023-06-05T14:02:23;101274.06;;;22.04
73761;BMP280;69240;43.530;-5.646;2023-06-05T14:04:49;101272.00;;;22.36
73761;BMP280;69240;43.530;-5.646;2023-06-05T14:07:14;101280.69;;;22.47
73761;BMP280;69240;43.530;-5.646;2023-06-05T14:09:40;101277.09;;;22.52
73761;BMP280;69240;43.530;-5.646;2023-06-05T14:12:08;101277.53;;;22.43
73761;BMP280;69240;43.530;-5.646;2023-06-05T14:14:35;101275.84;;;22.27
73761;BMP280;69240;43.530;-5.646;2023-06-05T14:17:00;101272.63;;;22.29
73761;BMP280;69240;43.530;-5.646;2023-06-05T14:19:27;101278.38;;;22.38
73761;BMP280;69240;43.530;-5.646;2023-06-05T14:21:52;101287.09;;;22.11
73761;BMP280;69240;43.530;-5.646;2023-06-05T14:24:18;101283.06;;;22.38
73761;BMP280;69240;43.530;-5.646;2023-06-05T14:26:45;101278.50;;;22.33
73761;BMP280;69240;43.530;-5.646;2023-06-05T14:29:11;101282.28;;;22.30
73761;BMP280;69240;43.530;-5.646;2023-06-05T14:31:39;101286.69;;;22.33
73761;BMP280;69240;43.530;-5.646;2023-06-05T14:34:04;101277.53;;;22.04
73761;BMP280;69240;43.530;-5.646;2023-06-05T14:36:30;101282.25;;;22.04
73761;BMP280;69240;43.530;-5.646;2023-06-05T14:38:55;101294.00;;;22.12
73761;BMP280;69240;43.530;-5.646;2023-06-05T14:41:21;101282.28;;;22.30
73761;BMP280;69240;43.530;-5.646;2023-06-05T14:43:46;101278.28;;;22.31
73761;BMP280;69240;43.530;-5.646;2023-06-05T14:46:12;101276.69;;;22.35
73761;BMP280;69240;43.530;-5.646;2023-06-05T14:48:38;101291.38;;;22.19
73761;BMP280;69240;43.530;-5.646;2023-06-05T14:51:03;101277.84;;;22.27
73761;BMP280;69240;43.530;-5.646;2023-06-05T14:53:29;101282.47;;;22.45
73761;BMP280;69240;43.530;-5.646;2023-06-05T14:55:57;101280.47;;;22.19
73761;BMP280;69240;43.530;-5.646;2023-06-05T14:58:22;101275.31;;;22.42
73761;BMP280;69240;43.530;-5.646;2023-06-05T15:00:48;101270.50;;;22.48
73761;BMP280;69240;43.530;-5.646;2023-06-05T15:03:14;101274.06;;;22.43
73761;BMP280;69240;43.530;-5.646;2023-06-05T15:05:39;101272.31;;;22.32
73761;BMP280;69240;43.530;-5.646;2023-06-05T15:08:05;101269.03;;;22.21
73761;BMP280;69240;43.530;-5.646;2023-06-05T15:10:31;101270.53;;;22.22
73761;BMP280;69240;43.530;-5.646;2023-06-05T15:12:57;101272.63;;;22.03
73761;BMP280;69240;43.530;-5.646;2023-06-05T15:15:25;101277.22;;;22.21
73761;BMP280;69240;43.530;-5.646;2023-06-05T15:17:51;101269.03;;;22.34
73761;BMP280;69240;43.530;-5.646;2023-06-05T15:20:23;101276.19;;;22.11
73761;BMP280;69240;43.530;-5.646;2023-06-05T15:22:49;101268.00;;;22.24
73761;BMP280;69240;43.530;-5.646;2023-06-05T15:25:14;101270.59;;;22.03
73761;BMP280;69240;43.530;-5.646;2023-06-05T15:27:40;101272.59;;;21.90
73761;BMP280;69240;43.530;-5.646;2023-06-05T15:30:06;101268.00;;;21.98
73761;BMP280;69240;43.530;-5.646;2023-06-05T15:32:32;101251.84;;;22.13
73761;BMP280;69240;43.530;-5.646;2023-06-05T15:34:57;101250.59;;;22.01
73761;BMP280;69240;43.530;-5.646;2023-06-05T15:37:24;101262.19;;;21.88
73761;BMP280;69240;43.530;-5.646;2023-06-05T15:39:49;101259.78;;;21.85
73761;BMP280;69240;43.530;-5.646;2023-06-05T15:42:26;101265.13;;;21.77
73761;BMP280;69240;43.530;-5.646;2023-06-05T15:44:52;101267.25;;;21.84
73761;BMP280;69240;43.530;-5.646;2023-06-05T15:47:20;101263.03;;;21.83
73761;BMP280;69240;43.530;-5.646;2023-06-05T15:49:46;101260.63;;;21.93
73761;BMP280;69240;43.530;-5.646;2023-06-05T15:52:12;101266.47;;;21.71
73761;BMP280;69240;43.530;-5.646;2023-06-05T15:54:37;101264.53;;;21.84
73761;BMP280;69240;43.530;-5.646;2023-06-05T15:57:07;101262.94;;;22.02
73761;BMP280;69240;43.530;-5.646;2023-06-05T15:59:33;101262.84;;;22.46
73761;BMP280;69240;43.530;-5.646;2023-06-05T16:01:58;101255.81;;;22.12
73761;BMP280;69240;43.530;-5.646;2023-06-05T16:04:24;101252.25;;;21.91
73761;BMP280;69240;43.530;-5.646;2023-06-05T16:06:50;101246.22;;;22.11
73761;BMP280;69240;43.530;-5.646;2023-06-05T16:09:15;101245.34;;;22.16
73761;BMP280;69240;43.530;-5.646;2023-06-05T16:11:41;101243.88;;;22.28
73761;BMP280;69240;43.530;-5.646;2023-06-05T16:14:06;101245.56;;;22.31
73761;BMP280;69240;43.530;-5.646;2023-06-05T16:16:32;101245.13;;;22.27
73761;BMP280;69240;43.530;-5.646;2023-06-05T16:18:59;101248.06;;;22.42
73761;BMP280;69240;43.530;-5.646;2023-06-05T16:21:25;101237.16;;;22.29
73761;BMP280;69240;43.530;-5.646;2023-06-05T16:23:51;101239.25;;;22.23
73761;BMP280;69240;43.530;-5.646;2023-06-05T16:26:17;101243.91;;;22.41
73761;BMP280;69240;43.530;-5.646;2023-06-05T16:28:43;101241.56;;;22.19
73761;BMP280;69240;43.530;-5.646;2023-06-05T16:31:08;101239.16;;;22.15
73761;BMP280;69240;43.530;-5.646;2023-06-05T16:33:36;101235.38;;;22.05
73761;BMP280;69240;43.530;-5.646;2023-06-05T16:36:02;101221.25;;;22.07
73761;BMP280;69240;43.530;-5.646;2023-06-05T16:38:28;101230.47;;;22.17
73761;BMP280;69240;43.530;-5.646;2023-06-05T16:40:53;101236.84;;;22.32
73761;BMP280;69240;43.530;-5.646;2023-06-05T16:43:19;101236.53;;;22.23
73761;BMP280;69240;43.530;-5.646;2023-06-05T16:45:44;101227.75;;;22.30
73761;BMP280;69240;43.530;-5.646;2023-06-05T16:48:10;101225.19;;;22.32
73761;BMP280;69240;43.530;-5.646;2023-06-05T16:50:36;101231.47;;;22.27